sensor_id;sensor_type;location;lat;lon;timestamp;P1;durP1;ratioP1;P2;durP2;ratioP2
7338;SDS011;33747;49.524;8.390;2023-03-19T00:00:54;11.10;;;6.03;;
7338;SDS011;33747;49.524;8.390;2023-03-19T00:03:20;14.25;;;6.68;;
7338;SDS011;33747;49.524;8.390;2023-03-19T00:05:51;10.50;;;5.40;;
7338;SDS011;33747;49.524;8.390;2023-03-19T00:08:17;9.30;;;5.35;;
7338;SDS011;33747;49.524;8.390;2023-03-19T00:10:42;16.77;;;6.50;;
7338;SDS011;33747;49.524;8.390;2023-03-19T00:13:08;11.88;;;6.00;;
7338;SDS011;33747;49.524;8.390;2023-03-19T00:15:34;12.07;;;6.20;;
7338;SDS011;33747;49.524;8.390;2023-03-19T00:18:00;11.30;;;5.38;;
7338;SDS011;33747;49.524;8.390;2023-03-19T00:20:25;16.25;;;6.60;;
7338;SDS011;33747;49.524;8.390;2023-03-19T00:22:51;15.93;;;6.55;;
7338;SDS011;33747;49.524;8.390;2023-03-19T00:25:16;10.48;;;5.47;;
7338;SDS011;33747;49.524;8.390;2023-03-19T00:27:41;12.60;;;6.47;;
7338;SDS011;33747;49.524;8.390;2023-03-19T00:30:08;13.68;;;6.57;;
7338;SDS011;33747;49.524;8.390;2023-03-19T00:32:35;14.82;;;5.38;;
7338;SDS011;33747;49.524;8.390;2023-03-19T00:35:00;14.48;;;6.18;;
7338;SDS011;33747;49.524;8.390;2023-03-19T00:37:26;14.15;;;6.50;;
7338;SDS011;33747;49.524;8.390;2023-03-19T00:39:51;12.07;;;5.88;;
7338;SDS011;33747;49.524;8.390;2023-03-19T00:42:16;7.95;;;5.63;;
7338;SDS011;33747;49.524;8.390;2023-03-19T00:44:42;13.05;;;6.32;;
7338;SDS011;33747;49.524;8.390;2023-03-19T00:47:07;13.35;;;5.93;;
7338;SDS011;33747;49.524;8.390;2023-03-19T00:49:33;13.23;;;5.75;;
7338;SDS011;33747;49.524;8.390;2023-03-19T00:51:58;10.68;;;6.07;;
7338;SDS011;33747;49.524;8.390;2023-03-19T00:54:23;11.10;;;6.00;;
7338;SDS011;33747;49.524;8.390;2023-03-19T00:56:48;16.27;;;6.32;;
7338;SDS011;33747;49.524;8.390;2023-03-19T00:59:14;11.30;;;6.03;;
7338;SDS011;33747;49.524;8.390;2023-03-19T01:01:39;10.73;;;6.22;;
7338;SDS011;33747;49.524;8.390;2023-03-19T01:04:04;18.73;;;7.10;;
7338;SDS011;33747;49.524;8.390;2023-03-19T01:06:30;18.73;;;7.00;;
7338;SDS011;33747;49.524;8.390;2023-03-19T01:08:55;15.18;;;6.95;;
7338;SDS011;33747;49.524;8.390;2023-03-19T01:11:20;13.88;;;6.80;;
7338;SDS011;33747;49.524;8.390;2023-03-19T01:13:46;16.50;;;6.82;;
7338;SDS011;33747;49.524;8.390;2023-03-19T01:16:11;10.13;;;5.97;;
7338;SDS011;33747;49.524;8.390;2023-03-19T01:18:37;16.48;;;6.43;;
7338;SDS011;33747;49.524;8.390;2023-03-19T01:21:02;18.05;;;6.68;;
7338;SDS011;33747;49.524;8.390;2023-03-19T01:23:28;12.48;;;6.15;;
7338;SDS011;33747;49.524;8.390;2023-03-19T01:25:54;10.65;;;6.25;;
7338;SDS011;33747;49.524;8.390;2023-03-19T01:28:20;10.88;;;6.60;;
7338;SDS011;33747;49.524;8.390;2023-03-19T01:30:46;16.60;;;6.53;;
7338;SDS011;33747;49.524;8.390;2023-03-19T01:33:11;9.75;;;5.88;;
7338;SDS011;33747;49.524;8.390;2023-03-19T01:35:37;12.82;;;6.82;;
7338;SDS011;33747;49.524;8.390;2023-03-19T01:38:03;8.75;;;6.05;;
7338;SDS011;33747;49.524;8.390;2023-03-19T01:40:28;12.15;;;6.20;;
7338;SDS011;33747;49.524;8.390;2023-03-19T01:42:56;15.25;;;6.43;;
7338;SDS011;33747;49.524;8.390;2023-03-19T01:45:31;12.30;;;6.30;;
7338;SDS011;33747;49.524;8.390;2023-03-19T01:48:01;13.43;;;6.05;;
7338;SDS011;33747;49.524;8.390;2023-03-19T01:50:27;14.70;;;6.00;;
7338;SDS011;33747;49.524;8.390;2023-03-19T01:53:03;16.70;;;6.43;;
7338;SDS011;33747;49.524;8.390;2023-03-19T01:55:28;20.98;;;6.43;;
7338;SDS011;33747;49.524;8.390;2023-03-19T01:57:54;14.70;;;6.30;;
7338;SDS011;33747;49.524;8.390;2023-03-19T02:00:20;13.52;;;7.13;;
7338;SDS011;33747;49.524;8.390;2023-03-19T02:02:47;12.63;;;6.53;;
7338;SDS011;33747;49.524;8.390;2023-03-19T02:05:17;10.40;;;5.97;;
7338;SDS011;33747;49.524;8.390;2023-03-19T02:07:49;11.98;;;6.70;;
7338;SDS011;33747;49.524;8.390;2023-03-19T02:10:17;10.90;;;6.93;;
7338;SDS011;33747;49.524;8.390;2023-03-19T02:12:43;20.15;;;6.85;;
7338;SDS011;33747;49.524;8.390;2023-03-19T02:15:09;12.55;;;5.95;;
7338;SDS011;33747;49.524;8.390;2023-03-19T02:17:34;13.35;;;6.97;;
7338;SDS011;33747;49.524;8.390;2023-03-19T02:22:54;14.95;;;6.68;;
7338;SDS011;33747;49.524;8.390;2023-03-19T02:25:36;13.15;;;5.80;;
7338;SDS011;33747;49.524;8.390;2023-03-19T02:28:03;10.73;;;5.88;;
7338;SDS011;33747;49.524;8.390;2023-03-19T02:30:30;9.10;;;6.28;;
7338;SDS011;33747;49.524;8.390;2023-03-19T02:32:56;15.05;;;6.50;;
7338;SDS011;33747;49.524;8.390;2023-03-19T02:35:22;16.38;;;6.78;;
7338;SDS011;33747;49.524;8.390;2023-03-19T02:37:47;12.13;;;5.93;;
7338;SDS011;33747;49.524;8.390;2023-03-19T02:40:23;12.10;;;5.32;;
7338;SDS011;33747;49.524;8.390;2023-03-19T02:42:50;11.02;;;6.13;;
7338;SDS011;33747;49.524;8.390;2023-03-19T02:45:16;12.77;;;6.95;;
7338;SDS011;33747;49.524;8.390;2023-03-19T02:47:41;12.60;;;5.95;;
7338;SDS011;33747;49.524;8.390;2023-03-19T02:50:07;21.58;;;6.47;;
7338;SDS011;33747;49.524;8.390;2023-03-19T02:52:33;16.13;;;6.90;;
7338;SDS011;33747;49.524;8.390;2023-03-19T02:54:59;19.85;;;7.45;;
7338;SDS011;33747;49.524;8.390;2023-03-19T02:57:24;21.60;;;6.13;;
7338;SDS011;33747;49.524;8.390;2023-03-19T02:59:50;18.15;;;5.45;;
7338;SDS011;33747;49.524;8.390;2023-03-19T03:02:15;12.18;;;5.88;;
7338;SDS011;33747;49.524;8.390;2023-03-19T03:04:41;14.80;;;5.43;;
7338;SDS011;33747;49.524;8.390;2023-03-19T03:07:06;12.65;;;5.90;;
7338;SDS011;33747;49.524;8.390;2023-03-19T03:09:32;11.43;;;5.97;;
7338;SDS011;33747;49.524;8.390;2023-03-19T03:11:58;15.55;;;6.03;;
7338;SDS011;33747;49.524;8.390;2023-03-19T03:14:23;14.90;;;6.18;;
7338;SDS011;33747;49.524;8.390;2023-03-19T03:16:48;17.20;;;5.88;;
7338;SDS011;33747;49.524;8.390;2023-03-19T03:19:14;13.25;;;5.13;;
7338;SDS011;33747;49.524;8.390;2023-03-19T03:21:39;10.60;;;6.07;;
7338;SDS011;33747;49.524;8.390;2023-03-19T03:24:05;15.70;;;5.97;;
7338;SDS011;33747;49.524;8.390;2023-03-19T03:26:30;11.90;;;5.88;;
7338;SDS011;33747;49.524;8.390;2023-03-19T03:28:56;14.70;;;5.38;;
7338;SDS011;33747;49.524;8.390;2023-03-19T03:31:21;10.40;;;5.00;;
7338;SDS011;33747;49.524;8.390;2023-03-19T03:33:47;11.80;;;5.70;;
7338;SDS011;33747;49.524;8.390;2023-03-19T03:36:13;10.55;;;5.60;;
7338;SDS011;33747;49.524;8.390;2023-03-19T03:38:38;11.55;;;6.05;;
7338;SDS011;33747;49.524;8.390;2023-03-19T03:41:03;9.80;;;5.00;;
7338;SDS011;33747;49.524;8.390;2023-03-19T03:43:29;13.65;;;5.20;;
7338;SDS011;33747;49.524;8.390;2023-03-19T03:45:54;9.32;;;6.00;;
7338;SDS011;33747;49.524;8.390;2023-03-19T03:48:20;8.27;;;5.05;;
7338;SDS011;33747;49.524;8.390;2023-03-19T03:50:45;10.93;;;5.32;;
7338;SDS011;33747;49.524;8.390;2023-03-19T03:53:11;8.35;;;4.35;;
7338;SDS011;33747;49.524;8.390;2023-03-19T03:55:37;23.92;;;5.47;;
7338;SDS011;33747;49.524;8.390;2023-03-19T03:58:02;10.88;;;5.07;;
7338;SDS011;33747;49.524;8.390;2023-03-19T04:00:28;9.18;;;5.43;;
7338;SDS011;33747;49.524;8.390;2023-03-19T04:02:53;9.32;;;4.85;;
7338;SDS011;33747;49.524;8.390;2023-03-19T04:05:19;9.60;;;4.88;;
7338;SDS011;33747;49.524;8.390;2023-03-19T04:07:45;11.48;;;4.93;;
7338;SDS011;33747;49.524;8.390;2023-03-19T04:10:11;9.52;;;4.90;;
7338;SDS011;33747;49.524;8.390;2023-03-19T04:12:38;8.88;;;5.25;;
7338;SDS011;33747;49.524;8.390;2023-03-19T04:15:04;11.32;;;5.40;;
7338;SDS011;33747;49.524;8.390;2023-03-19T04:17:30;6.25;;;4.63;;
7338;SDS011;33747;49.524;8.390;2023-03-19T04:19:55;6.30;;;4.40;;
7338;SDS011;33747;49.524;8.390;2023-03-19T04:22:21;11.77;;;5.80;;
7338;SDS011;33747;49.524;8.390;2023-03-19T04:24:46;15.18;;;5.50;;
7338;SDS011;33747;49.524;8.390;2023-03-19T04:27:12;11.77;;;5.00;;
7338;SDS011;33747;49.524;8.390;2023-03-19T04:29:37;11.02;;;5.55;;
7338;SDS011;33747;49.524;8.390;2023-03-19T04:32:03;7.32;;;4.60;;
7338;SDS011;33747;49.524;8.390;2023-03-19T04:34:28;16.00;;;5.50;;
7338;SDS011;33747;49.524;8.390;2023-03-19T04:36:53;12.65;;;5.53;;
7338;SDS011;33747;49.524;8.390;2023-03-19T04:39:20;9.77;;;5.47;;
7338;SDS011;33747;49.524;8.390;2023-03-19T04:41:45;16.40;;;5.22;;
7338;SDS011;33747;49.524;8.390;2023-03-19T04:44:11;11.75;;;5.43;;
7338;SDS011;33747;49.524;8.390;2023-03-19T04:46:36;11.10;;;4.45;;
7338;SDS011;33747;49.524;8.390;2023-03-19T04:49:01;7.57;;;4.70;;
7338;SDS011;33747;49.524;8.390;2023-03-19T04:51:26;10.95;;;5.18;;
7338;SDS011;33747;49.524;8.390;2023-03-19T04:53:52;9.55;;;5.25;;
7338;SDS011;33747;49.524;8.390;2023-03-19T04:56:17;6.50;;;4.43;;
7338;SDS011;33747;49.524;8.390;2023-03-19T04:58:43;7.30;;;4.70;;
7338;SDS011;33747;49.524;8.390;2023-03-19T05:01:08;6.70;;;3.85;;
7338;SDS011;33747;49.524;8.390;2023-03-19T05:03:33;13.82;;;4.15;;
7338;SDS011;33747;49.524;8.390;2023-03-19T05:05:59;8.48;;;4.00;;
7338;SDS011;33747;49.524;8.390;2023-03-19T05:08:24;7.63;;;4.55;;
7338;SDS011;33747;49.524;8.390;2023-03-19T05:10:50;5.93;;;3.83;;
7338;SDS011;33747;49.524;8.390;2023-03-19T05:13:15;7.88;;;3.60;;
7338;SDS011;33747;49.524;8.390;2023-03-19T05:15:43;7.70;;;4.18;;
7338;SDS011;33747;49.524;8.390;2023-03-19T05:18:10;7.10;;;4.45;;
7338;SDS011;33747;49.524;8.390;2023-03-19T05:20:36;8.57;;;4.70;;
7338;SDS011;33747;49.524;8.390;2023-03-19T05:23:02;8.23;;;3.75;;
7338;SDS011;33747;49.524;8.390;2023-03-19T05:25:27;8.80;;;4.78;;
7338;SDS011;33747;49.524;8.390;2023-03-19T05:27:54;7.05;;;4.55;;
7338;SDS011;33747;49.524;8.390;2023-03-19T05:30:19;5.28;;;3.58;;
7338;SDS011;33747;49.524;8.390;2023-03-19T05:32:44;6.25;;;3.70;;
7338;SDS011;33747;49.524;8.390;2023-03-19T05:35:10;7.93;;;4.72;;
7338;SDS011;33747;49.524;8.390;2023-03-19T05:37:36;7.90;;;4.30;;
7338;SDS011;33747;49.524;8.390;2023-03-19T05:40:02;6.78;;;3.80;;
7338;SDS011;33747;49.524;8.390;2023-03-19T05:42:27;9.00;;;4.13;;
7338;SDS011;33747;49.524;8.390;2023-03-19T05:44:53;9.75;;;3.88;;
7338;SDS011;33747;49.524;8.390;2023-03-19T05:47:18;7.97;;;3.47;;
7338;SDS011;33747;49.524;8.390;2023-03-19T05:49:43;8.75;;;4.18;;
7338;SDS011;33747;49.524;8.390;2023-03-19T05:52:09;5.85;;;4.25;;
7338;SDS011;33747;49.524;8.390;2023-03-19T05:54:35;8.20;;;4.13;;
7338;SDS011;33747;49.524;8.390;2023-03-19T05:57:00;7.32;;;4.63;;
7338;SDS011;33747;49.524;8.390;2023-03-19T05:59:26;17.58;;;4.60;;
7338;SDS011;33747;49.524;8.390;2023-03-19T06:01:51;10.23;;;4.72;;
7338;SDS011;33747;49.524;8.390;2023-03-19T06:04:17;8.90;;;4.13;;
7338;SDS011;33747;49.524;8.390;2023-03-19T06:06:42;15.93;;;3.97;;
7338;SDS011;33747;49.524;8.390;2023-03-19T06:09:07;6.28;;;3.60;;
7338;SDS011;33747;49.524;8.390;2023-03-19T06:11:33;8.25;;;3.63;;
7338;SDS011;33747;49.524;8.390;2023-03-19T06:13:58;5.50;;;3.95;;
7338;SDS011;33747;49.524;8.390;2023-03-19T06:16:23;9.80;;;4.25;;
7338;SDS011;33747;49.524;8.390;2023-03-19T06:18:49;9.82;;;4.35;;
7338;SDS011;33747;49.524;8.390;2023-03-19T06:21:14;22.33;;;10.55;;
7338;SDS011;33747;49.524;8.390;2023-03-19T06:23:40;35.70;;;20.55;;
7338;SDS011;33747;49.524;8.390;2023-03-19T06:26:05;25.75;;;12.43;;
7338;SDS011;33747;49.524;8.390;2023-03-19T06:28:31;36.88;;;19.90;;
7338;SDS011;33747;49.524;8.390;2023-03-19T06:30:56;28.40;;;14.40;;
7338;SDS011;33747;49.524;8.390;2023-03-19T06:33:22;23.05;;;14.25;;
7338;SDS011;33747;49.524;8.390;2023-03-19T06:35:51;23.20;;;14.07;;
7338;SDS011;33747;49.524;8.390;2023-03-19T06:38:16;10.40;;;6.68;;
7338;SDS011;33747;49.524;8.390;2023-03-19T06:40:42;11.55;;;4.85;;
7338;SDS011;33747;49.524;8.390;2023-03-19T06:43:07;7.40;;;4.32;;
7338;SDS011;33747;49.524;8.390;2023-03-19T06:45:33;6.85;;;3.92;;
7338;SDS011;33747;49.524;8.390;2023-03-19T06:47:58;6.90;;;3.83;;
7338;SDS011;33747;49.524;8.390;2023-03-19T06:50:23;7.40;;;3.72;;
7338;SDS011;33747;49.524;8.390;2023-03-19T06:52:49;8.93;;;3.63;;
7338;SDS011;33747;49.524;8.390;2023-03-19T06:55:15;8.70;;;4.25;;
7338;SDS011;33747;49.524;8.390;2023-03-19T06:57:41;10.65;;;4.57;;
7338;SDS011;33747;49.524;8.390;2023-03-19T07:00:07;7.68;;;4.15;;
7338;SDS011;33747;49.524;8.390;2023-03-19T07:02:35;9.02;;;4.30;;
7338;SDS011;33747;49.524;8.390;2023-03-19T07:05:00;7.53;;;4.25;;
7338;SDS011;33747;49.524;8.390;2023-03-19T07:07:26;8.77;;;4.45;;
7338;SDS011;33747;49.524;8.390;2023-03-19T07:09:51;6.30;;;4.40;;
7338;SDS011;33747;49.524;8.390;2023-03-19T07:12:16;15.98;;;4.25;;
7338;SDS011;33747;49.524;8.390;2023-03-19T07:14:41;7.22;;;4.22;;
7338;SDS011;33747;49.524;8.390;2023-03-19T07:17:07;10.13;;;3.78;;
7338;SDS011;33747;49.524;8.390;2023-03-19T07:19:32;8.30;;;4.30;;
7338;SDS011;33747;49.524;8.390;2023-03-19T07:21:57;9.57;;;4.13;;
7338;SDS011;33747;49.524;8.390;2023-03-19T07:24:23;8.30;;;4.35;;
7338;SDS011;33747;49.524;8.390;2023-03-19T07:26:48;6.35;;;4.20;;
7338;SDS011;33747;49.524;8.390;2023-03-19T07:29:13;5.43;;;4.07;;
7338;SDS011;33747;49.524;8.390;2023-03-19T07:31:39;8.07;;;4.35;;
7338;SDS011;33747;49.524;8.390;2023-03-19T07:34:05;6.68;;;3.60;;
7338;SDS011;33747;49.524;8.390;2023-03-19T07:36:30;7.22;;;3.90;;
7338;SDS011;33747;49.524;8.390;2023-03-19T07:38:56;8.38;;;4.70;;
7338;SDS011;33747;49.524;8.390;2023-03-19T07:41:21;8.63;;;3.92;;
7338;SDS011;33747;49.524;8.390;2023-03-19T07:43:47;8.65;;;4.25;;
7338;SDS011;33747;49.524;8.390;2023-03-19T07:46:12;7.47;;;4.40;;
7338;SDS011;33747;49.524;8.390;2023-03-19T07:48:37;7.22;;;3.90;;
7338;SDS011;33747;49.524;8.390;2023-03-19T07:51:03;8.25;;;4.20;;
7338;SDS011;33747;49.524;8.390;2023-03-19T07:53:28;6.35;;;3.95;;
7338;SDS011;33747;49.524;8.390;2023-03-19T07:55:54;5.68;;;3.58;;
7338;SDS011;33747;49.524;8.390;2023-03-19T07:58:19;8.63;;;4.53;;
7338;SDS011;33747;49.524;8.390;2023-03-19T08:00:44;6.30;;;4.05;;
7338;SDS011;33747;49.524;8.390;2023-03-19T08:03:10;11.85;;;4.03;;
7338;SDS011;33747;49.524;8.390;2023-03-19T08:05:35;8.75;;;4.28;;
7338;SDS011;33747;49.524;8.390;2023-03-19T08:08:00;7.65;;;3.92;;
7338;SDS011;33747;49.524;8.390;2023-03-19T08:10:26;6.72;;;4.18;;
7338;SDS011;33747;49.524;8.390;2023-03-19T08:12:51;8.13;;;3.97;;
7338;SDS011;33747;49.524;8.390;2023-03-19T08:15:16;11.68;;;3.63;;
7338;SDS011;33747;49.524;8.390;2023-03-19T08:17:42;5.28;;;3.65;;
7338;SDS011;33747;49.524;8.390;2023-03-19T08:20:09;10.50;;;4.72;;
7338;SDS011;33747;49.524;8.390;2023-03-19T08:22:37;7.43;;;4.38;;
7338;SDS011;33747;49.524;8.390;2023-03-19T08:25:03;7.03;;;4.35;;
7338;SDS011;33747;49.524;8.390;2023-03-19T08:27:29;6.28;;;3.85;;
7338;SDS011;33747;49.524;8.390;2023-03-19T08:29:55;5.82;;;3.90;;
7338;SDS011;33747;49.524;8.390;2023-03-19T08:32:21;10.07;;;4.85;;
7338;SDS011;33747;49.524;8.390;2023-03-19T08:34:46;6.72;;;3.55;;
7338;SDS011;33747;49.524;8.390;2023-03-19T08:37:12;6.85;;;3.67;;
7338;SDS011;33747;49.524;8.390;2023-03-19T08:39:37;5.97;;;3.85;;
7338;SDS011;33747;49.524;8.390;2023-03-19T08:42:03;7.80;;;3.90;;
7338;SDS011;33747;49.524;8.390;2023-03-19T08:44:28;6.90;;;3.85;;
7338;SDS011;33747;49.524;8.390;2023-03-19T08:46:53;9.77;;;3.72;;
7338;SDS011;33747;49.524;8.390;2023-03-19T08:49:19;6.40;;;3.50;;
7338;SDS011;33747;49.524;8.390;2023-03-19T08:51:44;7.18;;;3.58;;
7338;SDS011;33747;49.524;8.390;2023-03-19T08:54:10;10.57;;;3.90;;
7338;SDS011;33747;49.524;8.390;2023-03-19T08:56:37;5.78;;;3.67;;
7338;SDS011;33747;49.524;8.390;2023-03-19T08:59:02;5.00;;;3.45;;
7338;SDS011;33747;49.524;8.390;2023-03-19T09:01:28;5.78;;;3.78;;
7338;SDS011;33747;49.524;8.390;2023-03-19T09:03:53;5.25;;;3.10;;
7338;SDS011;33747;49.524;8.390;2023-03-19T09:06:18;6.45;;;3.60;;
7338;SDS011;33747;49.524;8.390;2023-03-19T09:08:44;4.80;;;3.15;;
7338;SDS011;33747;49.524;8.390;2023-03-19T09:11:09;4.90;;;3.42;;
7338;SDS011;33747;49.524;8.390;2023-03-19T09:13:34;3.78;;;3.40;;
7338;SDS011;33747;49.524;8.390;2023-03-19T09:16:00;4.80;;;3.05;;
7338;SDS011;33747;49.524;8.390;2023-03-19T09:18:25;7.32;;;3.70;;
7338;SDS011;33747;49.524;8.390;2023-03-19T09:20:51;4.20;;;3.17;;
7338;SDS011;33747;49.524;8.390;2023-03-19T09:23:17;4.82;;;2.90;;
7338;SDS011;33747;49.524;8.390;2023-03-19T09:25:43;5.28;;;3.22;;
7338;SDS011;33747;49.524;8.390;2023-03-19T09:28:08;7.85;;;3.15;;
7338;SDS011;33747;49.524;8.390;2023-03-19T09:30:33;6.40;;;2.97;;
7338;SDS011;33747;49.524;8.390;2023-03-19T09:32:59;4.75;;;2.80;;
7338;SDS011;33747;49.524;8.390;2023-03-19T09:35:24;4.65;;;2.78;;
7338;SDS011;33747;49.524;8.390;2023-03-19T09:37:55;6.35;;;2.80;;
7338;SDS011;33747;49.524;8.390;2023-03-19T09:40:21;4.20;;;2.40;;
7338;SDS011;33747;49.524;8.390;2023-03-19T09:42:57;8.23;;;2.00;;
7338;SDS011;33747;49.524;8.390;2023-03-19T09:45:30;3.75;;;2.20;;
7338;SDS011;33747;49.524;8.390;2023-03-19T09:47:57;5.28;;;2.17;;
7338;SDS011;33747;49.524;8.390;2023-03-19T09:50:35;5.05;;;2.10;;
7338;SDS011;33747;49.524;8.390;2023-03-19T09:55:40;3.78;;;2.30;;
7338;SDS011;33747;49.524;8.390;2023-03-19T09:58:20;3.50;;;1.92;;
7338;SDS011;33747;49.524;8.390;2023-03-19T10:00:50;4.85;;;2.35;;
7338;SDS011;33747;49.524;8.390;2023-03-19T10:16:50;6.03;;;2.10;;
7338;SDS011;33747;49.524;8.390;2023-03-19T10:19:18;3.95;;;2.20;;
7338;SDS011;33747;49.524;8.390;2023-03-19T10:22:00;3.08;;;1.75;;
7338;SDS011;33747;49.524;8.390;2023-03-19T10:24:30;3.93;;;2.13;;
7338;SDS011;33747;49.524;8.390;2023-03-19T10:27:06;5.40;;;1.80;;
7338;SDS011;33747;49.524;8.390;2023-03-19T10:29:33;9.15;;;2.88;;
7338;SDS011;33747;49.524;8.390;2023-03-19T10:35:00;6.25;;;2.35;;
7338;SDS011;33747;49.524;8.390;2023-03-19T10:37:30;4.38;;;1.70;;
7338;SDS011;33747;49.524;8.390;2023-03-19T10:39:56;8.68;;;1.75;;
7338;SDS011;33747;49.524;8.390;2023-03-19T10:45:26;3.38;;;1.83;;
7338;SDS011;33747;49.524;8.390;2023-03-19T10:47:54;2.85;;;1.80;;
7338;SDS011;33747;49.524;8.390;2023-03-19T10:50:36;5.88;;;2.10;;
7338;SDS011;33747;49.524;8.390;2023-03-19T10:55:37;5.80;;;2.05;;
7338;SDS011;33747;49.524;8.390;2023-03-19T10:58:04;3.25;;;1.70;;
7338;SDS011;33747;49.524;8.390;2023-03-19T11:00:31;6.43;;;2.03;;
7338;SDS011;33747;49.524;8.390;2023-03-19T11:02:59;3.03;;;1.58;;
7338;SDS011;33747;49.524;8.390;2023-03-19T11:05:28;4.00;;;2.50;;
7338;SDS011;33747;49.524;8.390;2023-03-19T11:07:59;5.60;;;2.08;;
7338;SDS011;33747;49.524;8.390;2023-03-19T11:10:27;1.95;;;1.60;;
7338;SDS011;33747;49.524;8.390;2023-03-19T11:12:57;5.45;;;1.88;;
7338;SDS011;33747;49.524;8.390;2023-03-19T11:15:31;3.38;;;1.90;;
7338;SDS011;33747;49.524;8.390;2023-03-19T11:18:00;5.50;;;2.35;;
7338;SDS011;33747;49.524;8.390;2023-03-19T11:20:33;7.20;;;1.90;;
7338;SDS011;33747;49.524;8.390;2023-03-19T11:23:00;5.18;;;1.80;;
7338;SDS011;33747;49.524;8.390;2023-03-19T11:25:38;2.10;;;1.50;;
7338;SDS011;33747;49.524;8.390;2023-03-19T11:28:18;5.38;;;2.25;;
7338;SDS011;33747;49.524;8.390;2023-03-19T11:30:51;2.15;;;1.58;;
7338;SDS011;33747;49.524;8.390;2023-03-19T11:41:48;8.18;;;2.33;;
7338;SDS011;33747;49.524;8.390;2023-03-19T11:44:27;4.40;;;2.17;;
7338;SDS011;33747;49.524;8.390;2023-03-19T11:59:02;4.03;;;2.08;;
7338;SDS011;33747;49.524;8.390;2023-03-19T12:16:16;4.43;;;2.45;;
7338;SDS011;33747;49.524;8.390;2023-03-19T12:18:56;3.50;;;2.08;;
7338;SDS011;33747;49.524;8.390;2023-03-19T12:21:40;3.00;;;2.03;;
7338;SDS011;33747;49.524;8.390;2023-03-19T12:24:24;5.00;;;2.08;;
7338;SDS011;33747;49.524;8.390;2023-03-19T12:27:20;5.63;;;2.15;;
7338;SDS011;33747;49.524;8.390;2023-03-19T12:30:17;6.30;;;2.08;;
7338;SDS011;33747;49.524;8.390;2023-03-19T12:35:35;4.78;;;2.38;;
7338;SDS011;33747;49.524;8.390;2023-03-19T12:38:09;5.00;;;2.50;;
7338;SDS011;33747;49.524;8.390;2023-03-19T12:44:42;2.97;;;2.35;;
7338;SDS011;33747;49.524;8.390;2023-03-19T12:47:15;3.42;;;1.95;;
7338;SDS011;33747;49.524;8.390;2023-03-19T12:49:47;2.60;;;1.98;;
7338;SDS011;33747;49.524;8.390;2023-03-19T12:52:26;3.55;;;2.10;;
7338;SDS011;33747;49.524;8.390;2023-03-19T13:00:21;2.90;;;1.83;;
7338;SDS011;33747;49.524;8.390;2023-03-19T13:02:55;1.73;;;1.40;;
7338;SDS011;33747;49.524;8.390;2023-03-19T13:10:25;7.47;;;2.10;;
7338;SDS011;33747;49.524;8.390;2023-03-19T13:12:53;5.63;;;1.85;;
7338;SDS011;33747;49.524;8.390;2023-03-19T13:23:00;5.07;;;2.30;;
7338;SDS011;33747;49.524;8.390;2023-03-19T13:25:37;1.70;;;1.60;;
7338;SDS011;33747;49.524;8.390;2023-03-19T13:28:09;4.20;;;2.40;;
7338;SDS011;33747;49.524;8.390;2023-03-19T13:30:36;3.20;;;1.80;;
7338;SDS011;33747;49.524;8.390;2023-03-19T13:33:04;5.22;;;1.85;;
7338;SDS011;33747;49.524;8.390;2023-03-19T13:35:35;4.43;;;2.08;;
7338;SDS011;33747;49.524;8.390;2023-03-19T13:38:08;2.80;;;2.13;;
7338;SDS011;33747;49.524;8.390;2023-03-19T13:40:43;3.97;;;2.03;;
7338;SDS011;33747;49.524;8.390;2023-03-19T13:43:38;4.13;;;2.10;;
7338;SDS011;33747;49.524;8.390;2023-03-19T13:48:36;4.78;;;2.38;;
7338;SDS011;33747;49.524;8.390;2023-03-19T13:59:26;7.00;;;3.10;;
7338;SDS011;33747;49.524;8.390;2023-03-19T14:01:52;7.78;;;2.67;;
7338;SDS011;33747;49.524;8.390;2023-03-19T14:04:25;6.38;;;2.55;;
7338;SDS011;33747;49.524;8.390;2023-03-19T14:14:38;7.32;;;3.90;;
7338;SDS011;33747;49.524;8.390;2023-03-19T14:17:04;9.13;;;3.97;;
7338;SDS011;33747;49.524;8.390;2023-03-19T14:19:40;6.38;;;3.80;;
7338;SDS011;33747;49.524;8.390;2023-03-19T14:22:18;6.30;;;3.50;;
7338;SDS011;33747;49.524;8.390;2023-03-19T14:25:01;6.20;;;2.97;;
7338;SDS011;33747;49.524;8.390;2023-03-19T14:27:27;4.28;;;2.90;;
7338;SDS011;33747;49.524;8.390;2023-03-19T14:29:56;7.28;;;3.13;;
7338;SDS011;33747;49.524;8.390;2023-03-19T14:32:24;5.55;;;2.72;;
7338;SDS011;33747;49.524;8.390;2023-03-19T14:34:56;6.72;;;3.08;;
7338;SDS011;33747;49.524;8.390;2023-03-19T14:37:25;4.90;;;2.72;;
7338;SDS011;33747;49.524;8.390;2023-03-19T14:42:26;6.85;;;3.05;;
7338;SDS011;33747;49.524;8.390;2023-03-19T14:47:37;8.38;;;3.97;;
7338;SDS011;33747;49.524;8.390;2023-03-19T14:50:20;4.13;;;2.50;;
7338;SDS011;33747;49.524;8.390;2023-03-19T14:53:01;3.25;;;2.20;;
7338;SDS011;33747;49.524;8.390;2023-03-19T14:55:32;3.78;;;2.53;;
7338;SDS011;33747;49.524;8.390;2023-03-19T14:57:59;4.25;;;2.17;;
7338;SDS011;33747;49.524;8.390;2023-03-19T15:00:25;3.92;;;2.50;;
7338;SDS011;33747;49.524;8.390;2023-03-19T15:02:51;4.43;;;2.22;;
7338;SDS011;33747;49.524;8.390;2023-03-19T15:05:21;5.57;;;2.08;;
7338;SDS011;33747;49.524;8.390;2023-03-19T15:07:51;3.83;;;1.83;;
7338;SDS011;33747;49.524;8.390;2023-03-19T15:10:19;4.88;;;2.05;;
7338;SDS011;33747;49.524;8.390;2023-03-19T15:12:55;7.13;;;2.25;;
7338;SDS011;33747;49.524;8.390;2023-03-19T15:17:55;2.17;;;1.70;;
7338;SDS011;33747;49.524;8.390;2023-03-19T15:20:23;4.55;;;3.22;;
7338;SDS011;33747;49.524;8.390;2023-03-19T15:22:52;2.97;;;2.13;;
7338;SDS011;33747;49.524;8.390;2023-03-19T15:25:18;5.75;;;2.72;;
7338;SDS011;33747;49.524;8.390;2023-03-19T15:27:43;6.82;;;2.60;;
7338;SDS011;33747;49.524;8.390;2023-03-19T15:30:22;3.63;;;2.15;;
7338;SDS011;33747;49.524;8.390;2023-03-19T15:32:51;7.25;;;2.42;;
7338;SDS011;33747;49.524;8.390;2023-03-19T15:35:17;4.70;;;2.50;;
7338;SDS011;33747;49.524;8.390;2023-03-19T15:37:43;5.70;;;2.92;;
7338;SDS011;33747;49.524;8.390;2023-03-19T15:40:14;5.00;;;2.20;;
7338;SDS011;33747;49.524;8.390;2023-03-19T15:42:42;2.38;;;1.95;;
7338;SDS011;33747;49.524;8.390;2023-03-19T15:45:10;2.08;;;1.48;;
7338;SDS011;33747;49.524;8.390;2023-03-19T15:47:44;3.35;;;1.90;;
7338;SDS011;33747;49.524;8.390;2023-03-19T15:50:15;2.42;;;1.75;;
7338;SDS011;33747;49.524;8.390;2023-03-19T15:52:42;4.55;;;2.22;;
7338;SDS011;33747;49.524;8.390;2023-03-19T15:55:12;2.75;;;1.70;;
7338;SDS011;33747;49.524;8.390;2023-03-19T15:57:38;3.55;;;1.80;;
7338;SDS011;33747;49.524;8.390;2023-03-19T16:00:06;2.17;;;2.03;;
7338;SDS011;33747;49.524;8.390;2023-03-19T16:02:38;2.42;;;1.70;;
7338;SDS011;33747;49.524;8.390;2023-03-19T16:05:05;2.83;;;1.90;;
7338;SDS011;33747;49.524;8.390;2023-03-19T16:09:59;4.18;;;1.75;;
7338;SDS011;33747;49.524;8.390;2023-03-19T16:12:38;6.25;;;1.90;;
7338;SDS011;33747;49.524;8.390;2023-03-19T16:20:42;4.03;;;2.38;;
7338;SDS011;33747;49.524;8.390;2023-03-19T16:23:32;5.50;;;2.78;;
7338;SDS011;33747;49.524;8.390;2023-03-19T16:26:19;5.43;;;2.60;;
7338;SDS011;33747;49.524;8.390;2023-03-19T16:31:43;4.28;;;2.70;;
7338;SDS011;33747;49.524;8.390;2023-03-19T16:34:52;4.60;;;3.10;;
7338;SDS011;33747;49.524;8.390;2023-03-19T16:37:25;6.43;;;2.78;;
7338;SDS011;33747;49.524;8.390;2023-03-19T16:39:56;3.55;;;2.35;;
7338;SDS011;33747;49.524;8.390;2023-03-19T16:42:46;5.15;;;2.70;;
7338;SDS011;33747;49.524;8.390;2023-03-19T16:45:18;5.75;;;2.72;;
7338;SDS011;33747;49.524;8.390;2023-03-19T16:47:49;4.03;;;2.70;;
7338;SDS011;33747;49.524;8.390;2023-03-19T16:50:16;3.58;;;2.28;;
7338;SDS011;33747;49.524;8.390;2023-03-19T16:52:43;4.13;;;2.97;;
7338;SDS011;33747;49.524;8.390;2023-03-19T16:55:17;5.82;;;2.92;;
7338;SDS011;33747;49.524;8.390;2023-03-19T16:57:44;5.63;;;3.20;;
7338;SDS011;33747;49.524;8.390;2023-03-19T17:00:13;5.40;;;2.85;;
7338;SDS011;33747;49.524;8.390;2023-03-19T17:02:39;3.72;;;2.60;;
7338;SDS011;33747;49.524;8.390;2023-03-19T17:05:11;7.20;;;3.30;;